createdAt,value
2019-02-17T00:00:39.240Z,-0.51
2019-02-17T00:01:47.300Z,-0.54
2019-02-17T00:02:55.348Z,-0.52
2019-02-17T00:04:03.400Z,-0.57
2019-02-17T00:05:11.447Z,-0.52
2019-02-17T00:06:19.507Z,-0.54
2019-02-17T00:07:27.571Z,-0.52
2019-02-17T00:08:35.618Z,-0.55
2019-02-17T00:09:43.673Z,-0.54
2019-02-17T00:10:51.695Z,-0.47
2019-02-17T00:11:59.788Z,-0.37
2019-02-17T00:13:07.806Z,-0.43
2019-02-17T00:14:15.880Z,-0.40
2019-02-17T00:15:23.948Z,-0.47
2019-02-17T00:16:31.985Z,-0.34
2019-02-17T00:17:40.043Z,-0.37
2019-02-17T00:18:48.081Z,-0.42
2019-02-17T00:19:56.169Z,-0.47
2019-02-17T00:21:04.228Z,-0.55
2019-02-17T00:22:12.242Z,-0.52
2019-02-17T00:23:20.303Z,-0.57
2019-02-17T00:24:28.366Z,-0.46
2019-02-17T00:25:36.405Z,-0.54
2019-02-17T00:26:44.461Z,-0.49
2019-02-17T00:27:52.507Z,-0.52
2019-02-17T00:29:00.569Z,-0.46
2019-02-17T00:30:08.601Z,-0.40
2019-02-17T00:31:16.668Z,-0.40
2019-02-17T00:32:24.738Z,-0.42
2019-02-17T00:33:32.782Z,-0.40
2019-02-17T00:34:40.800Z,-0.37
2019-02-17T00:35:48.881Z,-0.42
2019-02-17T00:36:56.937Z,-0.36
2019-02-17T00:38:04.978Z,-0.44
2019-02-17T00:39:13.028Z,-0.51
2019-02-17T00:40:21.087Z,-0.51
2019-02-17T00:41:29.127Z,-0.47
2019-02-17T00:42:37.213Z,-0.54
2019-02-17T00:43:45.237Z,-0.49
2019-02-17T00:44:53.301Z,-0.55
2019-02-17T00:46:01.347Z,-0.51
2019-02-17T00:47:09.377Z,-0.52
2019-02-17T00:48:17.451Z,-0.57
2019-02-17T00:49:25.516Z,-0.54
2019-02-17T00:50:33.560Z,-0.54
2019-02-17T00:51:43.701Z,-0.54
2019-02-17T00:52:49.665Z,-0.58
2019-02-17T00:53:57.722Z,-0.70
2019-02-17T00:55:05.757Z,-0.62
2019-02-17T00:56:13.804Z,-0.67
2019-02-17T00:57:21.877Z,-0.69
2019-02-17T00:58:29.952Z,-0.64
2019-02-17T00:59:37.974Z,-0.67
2019-02-17T01:00:46.048Z,-0.78
2019-02-17T01:01:54.093Z,-0.65
2019-02-17T01:03:02.128Z,-0.72
2019-02-17T01:04:10.183Z,-0.72
2019-02-17T01:05:18.217Z,-0.70
2019-02-17T01:06:26.290Z,-0.76
2019-02-17T01:07:34.324Z,-0.70
2019-02-17T01:08:42.405Z,-0.79
2019-02-17T01:09:50.457Z,-0.83
2019-02-17T01:10:58.482Z,-0.83
2019-02-17T01:12:06.552Z,-0.79
2019-02-17T01:13:14.594Z,-0.82
2019-02-17T01:14:22.630Z,-0.85
2019-02-17T01:15:30.707Z,-0.83
2019-02-17T01:16:38.727Z,-0.83
2019-02-17T01:17:46.829Z,-0.86
2019-02-17T01:18:54.879Z,-0.91
2019-02-17T01:20:02.906Z,-0.94
2019-02-17T01:21:10.959Z,-0.94
2019-02-17T01:22:19.008Z,-0.92
2019-02-17T01:23:27.052Z,-0.92
2019-02-17T01:24:35.116Z,-0.89
2019-02-17T01:25:43.164Z,-0.89
2019-02-17T01:26:51.230Z,-0.94
2019-02-17T01:27:59.278Z,-0.94
2019-02-17T01:29:07.334Z,-0.99
2019-02-17T01:30:15.376Z,-0.98
2019-02-17T01:31:23.432Z,-0.82
2019-02-17T01:32:31.461Z,-0.97
2019-02-17T01:33:39.517Z,-0.92
2019-02-17T01:34:47.594Z,-0.89
2019-02-17T01:35:55.642Z,-0.91
2019-02-17T01:37:03.716Z,-0.86
2019-02-17T01:38:11.708Z,-0.91
2019-02-17T01:39:19.807Z,-0.92
2019-02-17T01:40:27.836Z,-0.85
2019-02-17T01:41:35.890Z,-0.85
2019-02-17T01:42:43.972Z,-0.83
2019-02-17T01:43:51.974Z,-0.89
2019-02-17T01:45:00.106Z,-0.91
2019-02-17T01:46:08.093Z,-0.94
2019-02-17T01:47:16.175Z,-0.89
2019-02-17T01:48:24.219Z,-0.92
2019-02-17T01:49:32.295Z,-0.91
2019-02-17T01:50:40.298Z,-0.91
2019-02-17T01:51:48.370Z,-0.94
2019-02-17T01:52:56.413Z,-0.99
2019-02-17T01:54:04.457Z,-0.97
2019-02-17T01:55:12.518Z,-1.01
2019-02-17T01:56:20.575Z,-0.92
2019-02-17T01:57:28.708Z,-1.09
2019-02-17T01:58:36.678Z,-0.98
2019-02-17T01:59:44.735Z,-0.97
2019-02-17T02:00:52.766Z,-0.95
2019-02-17T02:02:00.809Z,-0.99
2019-02-17T02:03:08.886Z,-1.04
2019-02-17T02:04:16.921Z,-1.05
2019-02-17T02:05:24.999Z,-1.02
2019-02-17T02:06:33.037Z,-1.02
2019-02-17T02:07:41.104Z,-1.09
2019-02-17T02:08:49.178Z,-1.13
2019-02-17T02:09:57.171Z,-1.13
2019-02-17T02:11:05.276Z,-1.10
2019-02-17T02:12:13.290Z,-1.20
2019-02-17T02:13:21.359Z,-1.30
2019-02-17T02:14:29.408Z,-1.10
2019-02-17T02:15:37.467Z,-1.22
2019-02-17T02:16:45.493Z,-1.17
2019-02-17T02:17:53.569Z,-1.30
2019-02-17T02:19:01.615Z,-1.23
2019-02-17T02:20:09.688Z,-1.30
2019-02-17T02:21:17.714Z,-1.25
2019-02-17T02:22:25.748Z,-1.33
2019-02-17T02:23:33.794Z,-1.31
2019-02-17T02:24:41.861Z,-1.33
2019-02-17T02:25:49.947Z,-1.31
2019-02-17T02:26:57.962Z,-1.34
2019-02-17T02:28:06.020Z,-1.27
2019-02-17T02:29:14.068Z,-1.22
2019-02-17T02:30:22.124Z,-1.28
2019-02-17T02:31:30.198Z,-1.28
2019-02-17T02:32:38.237Z,-1.30
2019-02-17T02:33:46.291Z,-1.20
2019-02-17T02:34:54.320Z,-1.22
2019-02-17T02:36:02.379Z,-1.23
2019-02-17T02:37:10.417Z,-1.19
2019-02-17T02:38:18.620Z,-1.22
2019-02-17T02:39:26.541Z,-1.12
2019-02-17T02:40:34.592Z,-1.13
2019-02-17T02:41:42.654Z,-1.12
2019-02-17T02:42:50.686Z,-1.19
2019-02-17T02:43:58.761Z,-1.12
2019-02-17T02:45:06.788Z,-1.23
2019-02-17T02:46:14.828Z,-1.20
2019-02-17T02:47:22.902Z,-1.30
2019-02-17T02:48:30.952Z,-1.25
2019-02-17T02:49:39.007Z,-1.27
2019-02-17T02:50:47.064Z,-1.23
2019-02-17T02:51:55.112Z,-1.23
2019-02-17T02:53:03.163Z,-1.30
2019-02-17T02:54:11.206Z,-1.34
2019-02-17T02:55:19.263Z,-1.34
2019-02-17T02:56:27.304Z,-1.30
2019-02-17T02:57:35.370Z,-1.34
2019-02-17T02:58:43.463Z,-1.35
2019-02-17T02:59:52.507Z,-1.37
2019-02-17T03:00:59.533Z,-1.35
2019-02-17T03:02:07.563Z,-1.30
2019-02-17T03:03:15.629Z,-1.35
2019-02-17T03:04:23.683Z,-1.38
2019-02-17T03:05:31.703Z,-1.31
2019-02-17T03:06:39.795Z,-1.37
2019-02-17T03:07:47.824Z,-1.45
2019-02-17T03:08:55.894Z,-1.38
2019-02-17T03:10:03.936Z,-1.35
2019-02-17T03:11:11.977Z,-1.33
2019-02-17T03:12:20.038Z,-1.35
2019-02-17T03:13:28.119Z,-1.34
2019-02-17T03:14:36.150Z,-1.31
2019-02-17T03:15:44.193Z,-1.30
2019-02-17T03:16:52.228Z,-1.25
2019-02-17T03:18:00.294Z,-1.28
2019-02-17T03:19:08.363Z,-1.35
2019-02-17T03:20:16.388Z,-1.34
2019-02-17T03:21:24.451Z,-1.35
2019-02-17T03:22:32.508Z,-1.31
2019-02-17T03:23:40.549Z,-1.37
2019-02-17T03:24:48.617Z,-1.33
2019-02-17T03:25:56.669Z,-1.35
2019-02-17T03:27:04.706Z,-1.34
2019-02-17T03:28:12.757Z,-1.34
2019-02-17T03:29:20.791Z,-1.37
2019-02-17T03:30:28.873Z,-1.33
2019-02-17T03:31:36.914Z,-1.38
2019-02-17T03:32:44.965Z,-1.35
2019-02-17T03:33:53.032Z,-1.28
2019-02-17T03:35:01.057Z,-1.38
2019-02-17T03:36:09.111Z,-1.34
2019-02-17T03:37:17.175Z,-1.34
2019-02-17T03:38:25.228Z,-1.27
2019-02-17T03:39:33.268Z,-1.20
2019-02-17T03:40:41.309Z,-1.23
2019-02-17T03:41:49.374Z,-1.30
2019-02-17T03:42:57.429Z,-1.19
2019-02-17T03:44:05.471Z,-1.19
2019-02-17T03:45:13.523Z,-1.22
2019-02-17T03:46:21.597Z,-1.23
2019-02-17T03:47:29.649Z,-1.27
2019-02-17T03:48:37.689Z,-1.19
2019-02-17T03:49:45.772Z,-1.20
2019-02-17T03:50:53.796Z,-1.23
2019-02-17T03:52:01.848Z,-1.23
2019-02-17T03:53:09.912Z,-1.20
2019-02-17T03:54:17.950Z,-1.30
2019-02-17T03:55:25.994Z,-1.25
2019-02-17T03:56:34.066Z,-1.23
2019-02-17T03:57:42.081Z,-1.38
2019-02-17T03:58:50.183Z,-1.34
2019-02-17T03:59:58.225Z,-1.37
2019-02-17T04:01:06.269Z,-1.41
2019-02-17T04:02:14.304Z,-1.41
2019-02-17T04:03:22.333Z,-1.41
2019-02-17T04:04:30.400Z,-1.41
2019-02-17T04:05:38.481Z,-1.43
2019-02-17T04:06:46.507Z,-1.45
2019-02-17T04:07:54.634Z,-1.35
2019-02-17T04:09:02.600Z,-1.37
2019-02-17T04:10:10.682Z,-1.43
2019-02-17T04:11:18.717Z,-1.46
2019-02-17T04:12:26.781Z,-1.37
2019-02-17T04:13:34.814Z,-1.41
2019-02-17T04:14:42.867Z,-1.40
2019-02-17T04:15:50.925Z,-1.40
2019-02-17T04:16:58.987Z,-1.45
2019-02-17T04:18:07.036Z,-1.45
2019-02-17T04:19:15.096Z,-1.46
2019-02-17T04:20:23.131Z,-1.61
2019-02-17T04:21:33.298Z,-1.55
2019-02-17T04:22:39.240Z,-1.64
2019-02-17T04:23:47.317Z,-1.61
2019-02-17T04:24:55.356Z,-1.72
2019-02-17T04:26:03.394Z,-1.70
2019-02-17T04:27:11.466Z,-1.76
2019-02-17T04:28:19.502Z,-1.77
2019-02-17T04:29:27.575Z,-1.95
2019-02-17T04:30:35.605Z,-1.88
2019-02-17T04:31:43.647Z,-1.85
2019-02-17T04:32:51.685Z,-1.94
2019-02-17T04:33:59.746Z,-1.98
2019-02-17T04:35:07.811Z,-1.98
2019-02-17T04:36:15.841Z,-1.98
2019-02-17T04:37:23.910Z,-1.94
2019-02-17T04:38:31.941Z,-1.95
2019-02-17T04:39:40.063Z,-1.98
2019-02-17T04:40:48.064Z,-1.91
2019-02-17T04:41:56.118Z,-1.94
2019-02-17T04:43:04.168Z,-1.95
2019-02-17T04:44:12.253Z,-1.98
2019-02-17T04:45:20.364Z,-1.97
2019-02-17T04:46:28.302Z,-1.94
2019-02-17T04:47:36.382Z,-2.00
2019-02-17T04:48:44.412Z,-1.97
2019-02-17T04:49:52.468Z,-1.98
2019-02-17T04:51:00.516Z,-1.97
2019-02-17T04:52:08.575Z,-1.97
2019-02-17T04:53:16.616Z,-1.94
2019-02-17T04:54:24.666Z,-1.94
2019-02-17T04:55:32.730Z,-1.97
2019-02-17T04:56:40.790Z,-1.95
2019-02-17T04:57:48.835Z,-1.95
2019-02-17T04:58:56.872Z,-1.95
2019-02-17T05:00:04.938Z,-1.98
2019-02-17T05:01:12.979Z,-1.95
2019-02-17T05:02:21.051Z,-1.98
2019-02-17T05:03:29.077Z,-1.97
2019-02-17T05:04:37.144Z,-1.92
2019-02-17T05:05:45.193Z,-1.97
2019-02-17T05:06:53.226Z,-2.02
2019-02-17T05:08:01.370Z,-1.97
2019-02-17T05:09:09.352Z,-1.95
2019-02-17T05:10:17.400Z,-1.98
2019-02-17T05:11:25.455Z,-2.09
2019-02-17T05:12:33.483Z,-2.06
2019-02-17T05:13:42.399Z,-2.08
2019-02-17T05:14:49.599Z,-2.06
2019-02-17T05:15:57.654Z,-2.06
2019-02-17T05:17:05.692Z,-2.09
2019-02-17T05:18:13.762Z,-2.08
2019-02-17T05:19:21.822Z,-1.92
2019-02-17T05:20:29.987Z,-1.98
2019-02-17T05:21:37.914Z,-2.06
2019-02-17T05:22:45.966Z,-2.05
2019-02-17T05:23:54.010Z,-2.09
2019-02-17T05:25:02.035Z,-2.08
2019-02-17T05:26:10.098Z,-2.05
2019-02-17T05:27:18.178Z,-2.03
2019-02-17T05:28:26.223Z,-1.97
2019-02-17T05:29:34.280Z,-1.98
2019-02-17T05:30:52.043Z,-1.98
2019-02-17T05:31:50.379Z,-2.00
2019-02-17T05:32:58.430Z,-2.02
2019-02-17T05:34:06.482Z,-1.97
2019-02-17T05:35:14.565Z,-2.02
2019-02-17T05:36:22.576Z,-1.97
2019-02-17T05:37:30.620Z,-1.97
2019-02-17T05:38:38.676Z,-1.82
2019-02-17T05:39:46.741Z,-1.85
2019-02-17T05:40:54.793Z,-1.82
2019-02-17T05:42:02.841Z,-1.90
2019-02-17T05:43:10.889Z,-1.92
2019-02-17T05:44:18.929Z,-1.94
2019-02-17T05:45:26.998Z,-1.95
2019-02-17T05:46:35.035Z,-1.97
2019-02-17T05:47:43.096Z,-2.08
2019-02-17T05:48:51.151Z,-1.95
2019-02-17T05:49:59.190Z,-2.09
2019-02-17T05:51:07.230Z,-2.05
2019-02-17T05:52:15.284Z,-2.09
2019-02-17T05:53:23.334Z,-2.02
2019-02-17T05:54:31.391Z,-2.06
2019-02-17T05:55:39.471Z,-2.20
2019-02-17T05:56:47.539Z,-2.09
2019-02-17T05:57:55.561Z,-2.13
2019-02-17T05:59:03.594Z,-2.12
2019-02-17T06:00:11.649Z,-2.23
2019-02-17T06:01:19.695Z,-2.15
2019-02-17T06:02:27.742Z,-2.16
2019-02-17T06:03:35.845Z,-2.06
2019-02-17T06:04:43.846Z,-2.16
2019-02-17T06:05:51.904Z,-2.20
2019-02-17T06:06:59.969Z,-2.15
2019-02-17T06:08:07.997Z,-2.10
2019-02-17T06:09:16.074Z,-2.16
2019-02-17T06:10:24.121Z,-2.20
2019-02-17T06:11:32.146Z,-2.16
2019-02-17T06:12:40.240Z,-2.21
2019-02-17T06:13:48.275Z,-2.16
2019-02-17T06:14:56.312Z,-2.21
2019-02-17T06:16:04.392Z,-2.26
2019-02-17T06:17:12.453Z,-2.26
2019-02-17T06:18:20.488Z,-2.20
2019-02-17T06:19:28.509Z,-2.23
2019-02-17T06:20:36.579Z,-2.16
2019-02-17T06:21:44.628Z,-2.21
2019-02-17T06:22:52.683Z,-2.29
2019-02-17T06:24:00.724Z,-2.23
2019-02-17T06:25:08.778Z,-2.21
2019-02-17T06:26:16.823Z,-2.21
2019-02-17T06:27:24.930Z,-2.20
2019-02-17T06:28:32.958Z,-2.20
2019-02-17T06:29:40.975Z,-2.26
2019-02-17T06:30:49.073Z,-2.27
2019-02-17T06:31:57.075Z,-2.39
2019-02-17T06:33:05.126Z,-2.27
2019-02-17T06:34:13.197Z,-2.34
2019-02-17T06:35:21.253Z,-2.24
2019-02-17T06:36:29.303Z,-2.29
2019-02-17T06:37:37.340Z,-2.26
2019-02-17T06:38:45.397Z,-2.15
2019-02-17T06:39:53.463Z,-2.12
2019-02-17T06:41:01.536Z,-2.16
2019-02-17T06:42:09.546Z,-2.13
2019-02-17T06:43:17.606Z,-2.10
2019-02-17T06:44:25.666Z,-2.09
2019-02-17T06:45:33.768Z,-2.15
2019-02-17T06:46:41.755Z,-2.00
2019-02-17T06:47:49.827Z,-1.95
2019-02-17T06:48:57.882Z,-2.00
2019-02-17T06:50:05.911Z,-1.97
2019-02-17T06:51:13.962Z,-1.98
2019-02-17T06:52:21.992Z,-1.95
2019-02-17T06:53:30.066Z,-2.02
2019-02-17T06:54:38.117Z,-1.98
2019-02-17T06:55:46.170Z,-1.88
2019-02-17T06:56:54.232Z,-1.88
2019-02-17T06:58:02.295Z,-1.87
2019-02-17T06:59:10.346Z,-1.79
2019-02-17T07:00:18.410Z,-1.80
2019-02-17T07:01:26.426Z,-1.79
2019-02-17T07:02:34.490Z,-1.76
2019-02-17T07:03:42.528Z,-1.73
2019-02-17T07:04:50.581Z,-1.67
2019-02-17T07:05:58.633Z,-1.62
2019-02-17T07:07:06.681Z,-1.48
2019-02-17T07:08:14.727Z,-1.48
2019-02-17T07:09:22.812Z,-1.38
2019-02-17T07:10:30.834Z,-1.38
2019-02-17T07:11:38.944Z,-1.10
2019-02-17T07:12:46.969Z,-0.98
2019-02-17T07:13:54.996Z,-0.69
2019-02-17T07:15:03.073Z,-0.46
2019-02-17T07:16:11.084Z,-0.16
2019-02-17T07:17:19.140Z,0.13
2019-02-17T07:18:27.224Z,0.32
2019-02-17T07:19:35.264Z,0.61
2019-02-17T07:20:43.311Z,0.70
2019-02-17T07:21:51.354Z,0.90
2019-02-17T07:22:59.400Z,1.14
2019-02-17T07:24:07.463Z,1.14
2019-02-17T07:25:15.515Z,1.40
2019-02-17T07:26:23.571Z,1.62
2019-02-17T07:27:31.621Z,1.62
2019-02-17T07:28:39.694Z,1.73
2019-02-17T07:29:47.728Z,1.79
2019-02-17T07:30:55.780Z,1.84
2019-02-17T07:32:03.832Z,1.84
2019-02-17T07:33:11.881Z,1.86
2019-02-17T07:34:19.975Z,1.84
2019-02-17T07:35:28.001Z,1.91
2019-02-17T07:36:36.071Z,1.99
2019-02-17T07:37:44.120Z,2.06
2019-02-17T07:38:52.156Z,2.09
2019-02-17T07:40:00.354Z,2.28
2019-02-17T07:41:08.285Z,2.48
2019-02-17T07:42:16.307Z,2.72
2019-02-17T07:43:24.387Z,2.69
2019-02-17T07:44:32.414Z,2.66
2019-02-17T07:45:40.494Z,2.75
2019-02-17T07:46:48.539Z,2.79
2019-02-17T07:47:56.586Z,2.84
2019-02-17T07:49:04.664Z,2.75
2019-02-17T07:50:12.704Z,2.78
2019-02-17T07:51:20.753Z,2.79
2019-02-17T07:52:29.847Z,2.90
2019-02-17T07:53:36.896Z,2.95
2019-02-17T07:54:44.924Z,3.18
2019-02-17T07:55:52.994Z,3.31
2019-02-17T07:57:01.057Z,3.35
2019-02-17T07:58:09.087Z,3.50
2019-02-17T07:59:17.139Z,3.58
2019-02-17T08:00:25.226Z,3.66
2019-02-17T08:01:33.246Z,3.69
2019-02-17T08:02:41.307Z,3.69
2019-02-17T08:03:49.381Z,3.61
2019-02-17T08:04:57.415Z,3.60
2019-02-17T08:06:05.494Z,3.48
2019-02-17T08:07:13.527Z,3.55
2019-02-17T08:08:21.689Z,3.47
2019-02-17T08:09:29.636Z,3.60
2019-02-17T08:10:37.972Z,3.61
2019-02-17T08:11:45.782Z,3.79
2019-02-17T08:12:53.797Z,3.76
2019-02-17T08:14:01.861Z,3.88
2019-02-17T08:15:09.927Z,3.86
2019-02-17T08:16:17.953Z,3.88
2019-02-17T08:17:26.036Z,3.97
2019-02-17T08:18:34.146Z,3.90
2019-02-17T08:19:42.130Z,3.94
2019-02-17T08:20:50.209Z,4.05
2019-02-17T08:21:58.261Z,4.06
2019-02-17T08:23:06.329Z,4.02
2019-02-17T08:24:14.366Z,4.08
2019-02-17T08:25:23.807Z,4.11
2019-02-17T08:26:30.976Z,4.09
2019-02-17T08:27:38.552Z,4.08
2019-02-17T08:28:46.590Z,4.15
2019-02-17T08:29:54.659Z,4.20
2019-02-17T08:31:02.741Z,4.18
2019-02-17T08:32:10.819Z,4.24
2019-02-17T08:33:18.792Z,4.32
2019-02-17T08:34:26.867Z,4.36
2019-02-17T08:35:34.989Z,4.32
2019-02-17T08:36:43.043Z,4.36
2019-02-17T08:37:51.039Z,4.42
2019-02-17T08:38:59.091Z,4.50
2019-02-17T08:40:07.414Z,4.51
2019-02-17T08:41:15.665Z,4.60
2019-02-17T08:42:23.352Z,4.59
2019-02-17T08:43:31.692Z,4.66
2019-02-17T08:44:39.369Z,4.72
2019-02-17T08:45:47.628Z,4.78
2019-02-17T08:46:55.483Z,4.86
2019-02-17T08:48:03.513Z,4.85
2019-02-17T08:49:11.563Z,4.94
2019-02-17T08:50:20.079Z,4.99
2019-02-17T08:51:27.704Z,5.06
2019-02-17T08:52:35.768Z,5.10
2019-02-17T08:53:43.803Z,5.24
2019-02-17T08:54:51.886Z,5.21
2019-02-17T08:55:59.925Z,5.35
2019-02-17T08:57:07.961Z,5.31
2019-02-17T08:58:16.031Z,5.39
2019-02-17T08:59:24.090Z,5.49
2019-02-17T09:00:32.241Z,5.64
2019-02-17T09:01:40.525Z,5.65
2019-02-17T09:02:48.257Z,5.64
2019-02-17T09:03:56.318Z,5.79
2019-02-17T09:05:04.396Z,5.89
2019-02-17T09:06:12.441Z,5.91
2019-02-17T09:07:20.486Z,5.90
2019-02-17T09:08:28.757Z,6.06
2019-02-17T09:09:36.583Z,6.00
2019-02-17T09:10:44.653Z,5.99
2019-02-17T09:11:52.700Z,6.01
2019-02-17T09:13:00.770Z,6.19
2019-02-17T09:14:08.818Z,6.30
2019-02-17T09:15:16.888Z,6.40
2019-02-17T09:16:24.919Z,6.43
2019-02-17T09:17:32.989Z,6.55
2019-02-17T09:18:41.057Z,6.52
2019-02-17T09:19:49.104Z,6.61
2019-02-17T09:20:57.155Z,6.59
2019-02-17T09:22:05.197Z,6.61
2019-02-17T09:23:13.283Z,6.73
2019-02-17T09:24:21.327Z,6.73
2019-02-17T09:25:29.381Z,6.73
2019-02-17T09:26:37.438Z,6.71
2019-02-17T09:27:45.507Z,6.89
2019-02-17T09:28:53.560Z,6.92
2019-02-17T09:30:01.589Z,6.92
2019-02-17T09:31:09.683Z,7.07
2019-02-17T09:32:17.716Z,7.12
2019-02-17T09:33:25.785Z,7.17
2019-02-17T09:34:33.841Z,7.16
2019-02-17T09:35:41.900Z,7.40
2019-02-17T09:36:49.965Z,7.49
2019-02-17T09:37:58.020Z,7.43
2019-02-17T09:39:06.084Z,7.57
2019-02-17T09:40:14.096Z,7.71
2019-02-17T09:41:22.175Z,7.83
2019-02-17T09:42:30.269Z,7.89
2019-02-17T09:43:38.289Z,7.92
2019-02-17T09:44:46.377Z,8.05
2019-02-17T09:45:54.540Z,8.07
2019-02-17T09:47:02.475Z,8.16
2019-02-17T09:48:10.563Z,8.15
2019-02-17T09:49:18.577Z,8.23
2019-02-17T09:50:26.732Z,8.33
2019-02-17T09:51:35.277Z,8.44
2019-02-17T09:52:42.753Z,8.47
2019-02-17T09:53:50.829Z,8.44
2019-02-17T09:54:58.871Z,8.65
2019-02-17T09:56:06.977Z,8.63
2019-02-17T09:57:15.047Z,8.62
2019-02-17T09:58:23.059Z,8.65
2019-02-17T09:59:31.124Z,8.83
2019-02-17T10:00:39.728Z,8.83
2019-02-17T10:01:47.201Z,8.92
2019-02-17T10:02:55.280Z,8.96
2019-02-17T10:04:03.321Z,9.11
2019-02-17T10:05:11.364Z,9.15
2019-02-17T10:06:19.444Z,9.21
2019-02-17T10:07:27.560Z,9.38
2019-02-17T10:08:35.565Z,9.31
2019-02-17T10:09:43.792Z,9.47
2019-02-17T10:10:51.672Z,9.46
2019-02-17T10:11:59.747Z,9.51
2019-02-17T10:13:07.781Z,9.51
2019-02-17T10:14:15.862Z,9.50
2019-02-17T10:15:23.892Z,9.61
2019-02-17T10:16:31.942Z,9.64
2019-02-17T10:17:40.017Z,9.71
2019-02-17T10:18:48.075Z,9.69
2019-02-17T10:19:56.120Z,9.72
2019-02-17T10:21:04.201Z,9.79
2019-02-17T10:22:12.281Z,9.91
2019-02-17T10:23:20.356Z,9.81
2019-02-17T10:24:28.382Z,9.91
2019-02-17T10:25:36.412Z,9.91
2019-02-17T10:26:44.487Z,9.99
2019-02-17T10:27:52.527Z,9.97
2019-02-17T10:29:00.611Z,10.07
2019-02-17T10:30:08.701Z,10.25
2019-02-17T10:31:16.728Z,10.15
2019-02-17T10:32:24.779Z,10.22
2019-02-17T10:33:32.850Z,10.25
2019-02-17T10:34:40.897Z,10.29
2019-02-17T10:35:48.970Z,10.36
2019-02-17T10:36:57.006Z,10.38
2019-02-17T10:38:05.081Z,10.60
2019-02-17T10:39:13.125Z,10.48
2019-02-17T10:40:21.172Z,10.51
2019-02-17T10:41:29.270Z,10.64
2019-02-17T10:42:37.297Z,10.68
2019-02-17T10:43:45.383Z,10.70
2019-02-17T10:44:53.478Z,10.81
2019-02-17T10:46:01.495Z,10.85
2019-02-17T10:47:09.543Z,10.91
2019-02-17T10:48:17.615Z,10.94
2019-02-17T10:49:25.651Z,10.85
2019-02-17T10:50:33.700Z,10.91
2019-02-17T10:51:41.772Z,11.00
2019-02-17T10:52:49.864Z,11.02
2019-02-17T10:53:57.900Z,10.97
2019-02-17T10:55:05.956Z,11.00
2019-02-17T10:56:14.004Z,11.07
2019-02-17T10:57:22.101Z,11.07
2019-02-17T10:58:30.179Z,11.11
2019-02-17T10:59:38.238Z,11.19
2019-02-17T11:00:46.276Z,11.14
2019-02-17T11:01:54.331Z,11.18
2019-02-17T11:03:02.380Z,11.24
2019-02-17T11:04:10.444Z,11.22
2019-02-17T11:05:18.476Z,11.36
2019-02-17T11:06:26.563Z,11.28
2019-02-17T11:07:34.624Z,11.37
2019-02-17T11:08:42.689Z,11.29
2019-02-17T11:09:50.743Z,11.39
2019-02-17T11:10:58.800Z,11.39
2019-02-17T11:12:06.860Z,11.42
2019-02-17T11:13:14.964Z,11.43
2019-02-17T11:14:22.974Z,11.55
2019-02-17T11:15:31.051Z,11.62
2019-02-17T11:16:39.108Z,11.60
2019-02-17T11:17:47.155Z,11.60
2019-02-17T11:18:55.204Z,11.65
2019-02-17T11:20:03.270Z,11.65
2019-02-17T11:21:11.315Z,11.69
2019-02-17T11:22:23.031Z,11.73
2019-02-17T11:23:27.473Z,11.78
2019-02-17T11:24:35.531Z,11.70
2019-02-17T11:25:43.585Z,11.80
2019-02-17T11:26:51.628Z,11.83
2019-02-17T11:27:59.695Z,11.85
2019-02-17T11:29:07.796Z,11.98
2019-02-17T11:30:15.834Z,11.85
2019-02-17T11:31:23.884Z,11.91
2019-02-17T11:32:32.355Z,11.98
2019-02-17T11:33:40.027Z,11.91
2019-02-17T11:34:48.077Z,11.95
2019-02-17T11:35:56.112Z,12.02
2019-02-17T11:37:04.159Z,12.12
2019-02-17T11:38:12.257Z,12.10
2019-02-17T11:39:20.310Z,12.12
2019-02-17T11:40:28.373Z,12.10
2019-02-17T11:41:36.408Z,12.16
2019-02-17T11:42:44.480Z,12.24
2019-02-17T11:43:52.538Z,12.21
2019-02-17T11:45:00.607Z,12.21
2019-02-17T11:46:08.652Z,12.31
2019-02-17T11:47:16.726Z,12.27
2019-02-17T11:48:24.801Z,12.29
2019-02-17T11:49:32.854Z,12.39
2019-02-17T11:50:40.895Z,12.41
2019-02-17T11:51:48.982Z,12.39
2019-02-17T11:52:57.030Z,12.41
2019-02-17T11:54:05.064Z,12.49
2019-02-17T11:55:13.145Z,12.41
2019-02-17T11:56:21.192Z,12.46
2019-02-17T11:57:29.278Z,12.38
2019-02-17T11:58:37.328Z,12.54
2019-02-17T11:59:45.387Z,12.53
2019-02-17T12:00:53.457Z,12.54
2019-02-17T12:02:01.550Z,12.53
2019-02-17T12:03:09.596Z,12.54
2019-02-17T12:04:17.690Z,12.56
2019-02-17T12:05:25.685Z,12.52
2019-02-17T12:06:33.776Z,12.50
2019-02-17T12:07:41.792Z,12.54
2019-02-17T12:08:49.879Z,12.53
2019-02-17T12:09:57.951Z,12.52
2019-02-17T12:11:06.005Z,12.60
2019-02-17T12:12:14.051Z,12.62
2019-02-17T12:13:22.130Z,12.60
2019-02-17T12:14:30.185Z,12.70
2019-02-17T12:15:38.237Z,12.62
2019-02-17T12:16:46.298Z,12.65
2019-02-17T12:17:54.335Z,12.70
2019-02-17T12:19:02.403Z,12.68
2019-02-17T12:20:10.495Z,12.57
2019-02-17T12:21:18.536Z,12.60
2019-02-17T12:22:26.671Z,12.56
2019-02-17T12:23:34.660Z,12.71
2019-02-17T12:24:42.716Z,12.67
2019-02-17T12:25:50.802Z,12.67
2019-02-17T12:26:58.859Z,12.71
2019-02-17T12:28:06.876Z,12.70
2019-02-17T12:29:14.980Z,12.71
2019-02-17T12:30:23.151Z,12.67
2019-02-17T12:31:31.098Z,12.53
2019-02-17T12:32:39.158Z,12.54
2019-02-17T12:33:47.228Z,12.57
2019-02-17T12:34:55.264Z,12.57
2019-02-17T12:36:03.317Z,12.62
2019-02-17T12:37:11.378Z,12.68
2019-02-17T12:38:19.467Z,12.71
2019-02-17T12:39:28.275Z,12.62
2019-02-17T12:40:35.586Z,12.70
2019-02-17T12:41:43.635Z,12.71
2019-02-17T12:42:51.723Z,12.71
2019-02-17T12:43:59.779Z,12.85
2019-02-17T12:45:07.818Z,12.79
2019-02-17T12:46:15.873Z,12.90
2019-02-17T12:47:23.994Z,12.90
2019-02-17T12:48:31.996Z,12.87
2019-02-17T12:49:40.070Z,12.87
2019-02-17T12:50:48.114Z,12.89
2019-02-17T12:51:56.178Z,12.92
2019-02-17T12:53:04.230Z,13.00
2019-02-17T12:54:12.295Z,13.04
2019-02-17T12:55:20.356Z,13.04
2019-02-17T12:56:28.411Z,13.04
2019-02-17T12:57:36.495Z,13.07
2019-02-17T12:58:44.565Z,13.04
2019-02-17T12:59:52.608Z,13.05
2019-02-17T13:01:00.671Z,13.14
2019-02-17T13:02:08.766Z,13.11
2019-02-17T13:03:16.805Z,13.12
2019-02-17T13:04:24.847Z,13.04
2019-02-17T13:05:32.901Z,13.15
2019-02-17T13:06:40.996Z,13.22
2019-02-17T13:07:49.035Z,13.22
2019-02-17T13:08:57.092Z,13.12
2019-02-17T13:10:05.183Z,13.11
2019-02-17T13:11:13.216Z,13.04
2019-02-17T13:12:21.292Z,13.05
2019-02-17T13:13:29.351Z,13.08
2019-02-17T13:14:37.400Z,13.12
2019-02-17T13:15:45.458Z,13.11
2019-02-17T13:16:53.509Z,13.11
2019-02-17T13:18:01.583Z,13.14
2019-02-17T13:19:09.638Z,13.04
2019-02-17T13:20:17.707Z,13.10
2019-02-17T13:21:25.766Z,13.03
2019-02-17T13:22:33.840Z,13.03
2019-02-17T13:23:41.918Z,13.00
2019-02-17T13:24:49.946Z,13.07
2019-02-17T13:25:58.020Z,13.05
2019-02-17T13:27:06.090Z,13.08
2019-02-17T13:28:14.126Z,13.07
2019-02-17T13:29:22.539Z,13.17
2019-02-17T13:30:30.255Z,13.10
2019-02-17T13:31:38.310Z,13.14
2019-02-17T13:32:46.380Z,13.17
2019-02-17T13:33:54.462Z,13.19
2019-02-17T13:35:02.499Z,13.04
2019-02-17T13:36:10.550Z,13.14
2019-02-17T13:37:18.641Z,13.22
2019-02-17T13:38:26.682Z,13.25
2019-02-17T13:39:34.788Z,13.17
2019-02-17T13:40:42.810Z,13.20
2019-02-17T13:41:50.871Z,13.19
2019-02-17T13:42:58.968Z,13.25
2019-02-17T13:44:06.992Z,13.23
2019-02-17T13:45:15.049Z,13.23
2019-02-17T13:46:23.115Z,13.23
2019-02-17T13:47:31.181Z,13.23
2019-02-17T13:48:39.243Z,13.20
2019-02-17T13:49:47.281Z,13.30
2019-02-17T13:50:55.393Z,13.36
2019-02-17T13:52:03.437Z,13.41
2019-02-17T13:53:12.093Z,13.46
2019-02-17T13:54:19.534Z,13.48
2019-02-17T13:55:27.592Z,13.52
2019-02-17T13:56:35.674Z,13.39
2019-02-17T13:57:43.762Z,13.49
2019-02-17T13:58:51.779Z,13.55
2019-02-17T13:59:59.839Z,13.51
2019-02-17T14:01:07.897Z,13.51
2019-02-17T14:02:15.976Z,13.49
2019-02-17T14:03:24.036Z,13.52
2019-02-17T14:04:32.121Z,13.42
2019-02-17T14:05:40.169Z,13.44
2019-02-17T14:06:48.282Z,13.51
2019-02-17T14:07:56.301Z,13.44
2019-02-17T14:09:04.329Z,13.41
2019-02-17T14:10:12.400Z,13.42
2019-02-17T14:11:20.457Z,13.44
2019-02-17T14:12:28.558Z,13.39
2019-02-17T14:13:36.567Z,13.45
2019-02-17T14:14:44.641Z,13.46
2019-02-17T14:15:52.713Z,13.44
2019-02-17T14:17:00.776Z,13.45
2019-02-17T14:18:08.815Z,13.48
2019-02-17T14:19:16.894Z,13.42
2019-02-17T14:20:24.944Z,13.42
2019-02-17T14:21:33.021Z,13.45
2019-02-17T14:22:41.080Z,13.42
2019-02-17T14:23:49.136Z,13.41
2019-02-17T14:24:57.204Z,13.33
2019-02-17T14:26:05.261Z,13.36
2019-02-17T14:27:13.316Z,13.36
2019-02-17T14:28:21.376Z,13.29
2019-02-17T14:29:29.437Z,13.36
2019-02-17T14:30:37.493Z,13.33
2019-02-17T14:31:45.559Z,13.30
2019-02-17T14:32:53.645Z,13.33
2019-02-17T14:34:01.680Z,13.26
2019-02-17T14:35:09.743Z,13.25
2019-02-17T14:36:17.805Z,13.28
2019-02-17T14:37:25.877Z,13.29
2019-02-17T14:38:33.929Z,13.26
2019-02-17T14:39:41.966Z,13.29
2019-02-17T14:40:50.045Z,13.25
2019-02-17T14:41:58.124Z,13.22
2019-02-17T14:43:06.171Z,13.29